Wetumpka, AL (36092)

11:56 AM CDT on August 24, 2016 (GMT -0500)
Southwick Residence | | Change Station

Elev 300 ft 32.52 °N, 86.20 °W | Updated 6 seconds ago

Mostly Cloudy
Mostly Cloudy
89.3 °F
Feels Like 100 °F
N
0.0
Wind Variable Wind from NW
Gusts 3.0 mph

Today
High -- | Low -- °F
--% Chance of Precip.
Yesterday
High -- | Low -- °F
Precip. -- in
Pressure 30.20 in
Visibility 10.0 miles
Clouds Mostly Cloudy 3000 ft
Heat Index 100 °F
Dew Point 76 °F
Humidity 64%
Rainfall 0.00 in
Snow Depth Not available.
6:14 AM 7:18 PM
Waning Gibbous, 55% visible
SPECI KMXF 241643Z AUTO VRB05KT 10SM BKN030 32/24 A3020 RMK AO2
Pressure 30.20 in
Visibility 10.0 miles
Clouds Mostly Cloudy 3000 ft
Heat Index 100 °F
Dew Point 76 °F
Humidity 64%
Rainfall 0.00 in
Snow Depth Not available.
6:14 AM 7:18 PM
Waning Gibbous, 55% visible
SPECI KMXF 241643Z AUTO VRB05KT 10SM BKN030 32/24 A3020 RMK AO2

10-Day Weather Forecast

Almanac

Astronomy

Aug. 24, 2016 Rise Set
Actual Time
Civil Twilight
Nautical Twilight
Astronomical Twilight
Moon
Length of Visible Light
Length of Day
Tomorrow will be .
, % of the Moon is Illuminated

Today's Extremes

State Highs State Lows

Community

WunderPhotos

Upload Photos

1,934,652 photos uploaded!

WunderBlog® & News

Nearby

Air Quality

  Air Quality AQ Index Pollutant
Not available.

Snow Depth

Station Depth Elevation

Earthquake Activity

City Distance Mag. Time & Date
Minimum magnitude displayed is 2.5.

Coastal Water Temperatures

Place Temperature

Stations

Nearby Weather Stations

Station Location Temp. Windchill Dew Point Humidity Wind Precip. Elev Updated Type
                   

Watches & Warnings

There are currently no watches in effect.